sensor_id;sensor_type;location;lat;lon;timestamp;temperature;humidity
19972;DHT22;10147;16.402;102.848;2023-08-06T00:02:11;25.90;99.90
19972;DHT22;10147;16.402;102.848;2023-08-06T00:04:41;25.90;99.90
19972;DHT22;10147;16.402;102.848;2023-08-06T00:07:11;25.90;99.90
19972;DHT22;10147;16.402;102.848;2023-08-06T00:09:40;25.90;99.90
19972;DHT22;10147;16.402;102.848;2023-08-06T00:12:10;25.90;99.90
19972;DHT22;10147;16.402;102.848;2023-08-06T00:14:40;25.90;99.90
19972;DHT22;10147;16.402;102.848;2023-08-06T00:17:10;25.90;99.90
19972;DHT22;10147;16.402;102.848;2023-08-06T00:19:40;25.90;99.90
19972;DHT22;10147;16.402;102.848;2023-08-06T00:22:10;26.00;99.90
19972;DHT22;10147;16.402;102.848;2023-08-06T00:24:40;26.00;99.90
19972;DHT22;10147;16.402;102.848;2023-08-06T00:27:10;25.90;99.90
19972;DHT22;10147;16.402;102.848;2023-08-06T00:29:40;26.00;99.90
19972;DHT22;10147;16.402;102.848;2023-08-06T00:32:10;26.00;99.90
19972;DHT22;10147;16.402;102.848;2023-08-06T00:34:40;26.00;99.90
19972;DHT22;10147;16.402;102.848;2023-08-06T00:37:10;26.10;99.90
19972;DHT22;10147;16.402;102.848;2023-08-06T00:39:39;26.10;99.90
19972;DHT22;10147;16.402;102.848;2023-08-06T00:42:10;26.10;99.90
19972;DHT22;10147;16.402;102.848;2023-08-06T00:44:40;26.10;99.90
19972;DHT22;10147;16.402;102.848;2023-08-06T00:47:10;26.10;99.90
19972;DHT22;10147;16.402;102.848;2023-08-06T00:49:40;26.10;99.90
19972;DHT22;10147;16.402;102.848;2023-08-06T00:52:11;26.10;99.90
19972;DHT22;10147;16.402;102.848;2023-08-06T00:54:42;26.20;99.90
19972;DHT22;10147;16.402;102.848;2023-08-06T00:57:12;26.20;99.90
19972;DHT22;10147;16.402;102.848;2023-08-06T00:59:43;26.30;99.90
19972;DHT22;10147;16.402;102.848;2023-08-06T01:02:13;26.30;99.90
19972;DHT22;10147;16.402;102.848;2023-08-06T01:04:43;26.30;99.90
19972;DHT22;10147;16.402;102.848;2023-08-06T01:13:43;26.30;99.90
19972;DHT22;10147;16.402;102.848;2023-08-06T01:16:18;26.40;99.90
19972;DHT22;10147;16.402;102.848;2023-08-06T01:18:48;26.40;99.90
19972;DHT22;10147;16.402;102.848;2023-08-06T01:21:19;26.40;99.90
19972;DHT22;10147;16.402;102.848;2023-08-06T01:23:49;26.40;99.90
19972;DHT22;10147;16.402;102.848;2023-08-06T01:26:35;26.40;99.90
19972;DHT22;10147;16.402;102.848;2023-08-06T01:29:30;26.50;99.90
19972;DHT22;10147;16.402;102.848;2023-08-06T01:32:02;26.50;99.90
19972;DHT22;10147;16.402;102.848;2023-08-06T01:34:34;26.60;99.90
19972;DHT22;10147;16.402;102.848;2023-08-06T01:37:05;26.60;99.90
19972;DHT22;10147;16.402;102.848;2023-08-06T01:39:35;26.60;99.90
19972;DHT22;10147;16.402;102.848;2023-08-06T01:42:05;26.70;99.90
19972;DHT22;10147;16.402;102.848;2023-08-06T01:44:35;26.70;99.90
19972;DHT22;10147;16.402;102.848;2023-08-06T01:47:05;26.80;99.90
19972;DHT22;10147;16.402;102.848;2023-08-06T01:49:36;26.80;99.90
19972;DHT22;10147;16.402;102.848;2023-08-06T01:52:06;26.80;99.90
19972;DHT22;10147;16.402;102.848;2023-08-06T01:54:36;26.80;99.90
19972;DHT22;10147;16.402;102.848;2023-08-06T01:57:06;26.90;99.90
19972;DHT22;10147;16.402;102.848;2023-08-06T01:59:36;26.80;99.90
19972;DHT22;10147;16.402;102.848;2023-08-06T02:02:06;26.80;99.90
19972;DHT22;10147;16.402;102.848;2023-08-06T02:04:36;26.80;99.90
19972;DHT22;10147;16.402;102.848;2023-08-06T02:07:06;26.80;99.90
19972;DHT22;10147;16.402;102.848;2023-08-06T02:09:37;26.70;99.90
19972;DHT22;10147;16.402;102.848;2023-08-06T02:12:07;26.80;99.90
19972;DHT22;10147;16.402;102.848;2023-08-06T02:14:37;26.80;99.90
19972;DHT22;10147;16.402;102.848;2023-08-06T02:17:07;26.80;99.90
19972;DHT22;10147;16.402;102.848;2023-08-06T02:19:37;26.80;99.90
19972;DHT22;10147;16.402;102.848;2023-08-06T02:22:06;26.80;99.90
19972;DHT22;10147;16.402;102.848;2023-08-06T02:24:36;26.80;99.90
19972;DHT22;10147;16.402;102.848;2023-08-06T02:27:06;26.80;99.90
19972;DHT22;10147;16.402;102.848;2023-08-06T02:29:36;26.80;99.90
19972;DHT22;10147;16.402;102.848;2023-08-06T02:32:06;26.90;99.90
19972;DHT22;10147;16.402;102.848;2023-08-06T02:34:36;26.90;99.90
19972;DHT22;10147;16.402;102.848;2023-08-06T02:37:06;26.90;99.90
19972;DHT22;10147;16.402;102.848;2023-08-06T02:39:35;26.90;99.90
19972;DHT22;10147;16.402;102.848;2023-08-06T02:42:09;26.90;99.90
19972;DHT22;10147;16.402;102.848;2023-08-06T02:44:39;26.90;99.90
19972;DHT22;10147;16.402;102.848;2023-08-06T02:47:10;27.00;99.90
19972;DHT22;10147;16.402;102.848;2023-08-06T02:49:40;27.00;99.90
19972;DHT22;10147;16.402;102.848;2023-08-06T02:52:10;27.00;99.90
19972;DHT22;10147;16.402;102.848;2023-08-06T02:54:40;27.10;99.90
19972;DHT22;10147;16.402;102.848;2023-08-06T02:57:11;27.00;99.90
19972;DHT22;10147;16.402;102.848;2023-08-06T02:59:41;27.00;99.90
19972;DHT22;10147;16.402;102.848;2023-08-06T03:02:16;27.10;99.90
19972;DHT22;10147;16.402;102.848;2023-08-06T03:05:06;27.10;99.90
19972;DHT22;10147;16.402;102.848;2023-08-06T03:07:40;27.20;99.90
19972;DHT22;10147;16.402;102.848;2023-08-06T03:10:22;27.30;99.90
19972;DHT22;10147;16.402;102.848;2023-08-06T03:12:54;27.30;99.90
19972;DHT22;10147;16.402;102.848;2023-08-06T03:15:24;27.30;99.90
19972;DHT22;10147;16.402;102.848;2023-08-06T03:17:56;27.40;99.90
19972;DHT22;10147;16.402;102.848;2023-08-06T03:20:26;27.40;99.90
19972;DHT22;10147;16.402;102.848;2023-08-06T03:22:56;27.50;99.90
19972;DHT22;10147;16.402;102.848;2023-08-06T03:25:27;27.50;99.90
19972;DHT22;10147;16.402;102.848;2023-08-06T03:27:59;27.50;99.90
19972;DHT22;10147;16.402;102.848;2023-08-06T03:30:29;27.60;99.90
19972;DHT22;10147;16.402;102.848;2023-08-06T03:32:59;27.70;99.90
19972;DHT22;10147;16.402;102.848;2023-08-06T03:35:29;27.70;99.90
19972;DHT22;10147;16.402;102.848;2023-08-06T03:37:59;27.80;99.90
19972;DHT22;10147;16.402;102.848;2023-08-06T03:40:29;27.80;99.90
19972;DHT22;10147;16.402;102.848;2023-08-06T03:42:59;27.80;99.90
19972;DHT22;10147;16.402;102.848;2023-08-06T03:45:29;27.90;99.90
19972;DHT22;10147;16.402;102.848;2023-08-06T03:47:59;27.90;99.90
19972;DHT22;10147;16.402;102.848;2023-08-06T03:50:29;27.90;99.90
19972;DHT22;10147;16.402;102.848;2023-08-06T03:52:59;27.90;99.90
19972;DHT22;10147;16.402;102.848;2023-08-06T03:55:29;27.80;99.90
19972;DHT22;10147;16.402;102.848;2023-08-06T03:57:59;27.80;99.90
19972;DHT22;10147;16.402;102.848;2023-08-06T04:00:29;27.80;99.90
19972;DHT22;10147;16.402;102.848;2023-08-06T04:02:59;27.80;99.90
19972;DHT22;10147;16.402;102.848;2023-08-06T04:05:32;28.00;99.90
19972;DHT22;10147;16.402;102.848;2023-08-06T04:08:02;28.00;99.90
19972;DHT22;10147;16.402;102.848;2023-08-06T04:10:32;28.10;99.90
19972;DHT22;10147;16.402;102.848;2023-08-06T04:13:02;28.10;99.90
19972;DHT22;10147;16.402;102.848;2023-08-06T04:15:34;28.10;99.90
19972;DHT22;10147;16.402;102.848;2023-08-06T04:18:05;28.20;99.90
19972;DHT22;10147;16.402;102.848;2023-08-06T04:20:41;28.20;99.90
19972;DHT22;10147;16.402;102.848;2023-08-06T04:23:12;28.30;99.90
19972;DHT22;10147;16.402;102.848;2023-08-06T04:25:42;28.20;99.90
19972;DHT22;10147;16.402;102.848;2023-08-06T04:28:13;28.20;99.90
19972;DHT22;10147;16.402;102.848;2023-08-06T04:30:43;28.20;99.90
19972;DHT22;10147;16.402;102.848;2023-08-06T04:33:13;28.20;99.90
19972;DHT22;10147;16.402;102.848;2023-08-06T04:35:45;28.20;99.90
19972;DHT22;10147;16.402;102.848;2023-08-06T04:38:15;28.30;99.90
19972;DHT22;10147;16.402;102.848;2023-08-06T04:40:45;28.30;99.90
19972;DHT22;10147;16.402;102.848;2023-08-06T04:43:15;28.20;99.90
19972;DHT22;10147;16.402;102.848;2023-08-06T04:45:53;28.20;99.90
19972;DHT22;10147;16.402;102.848;2023-08-06T04:48:23;28.20;99.90
19972;DHT22;10147;16.402;102.848;2023-08-06T04:50:53;28.30;99.90
19972;DHT22;10147;16.402;102.848;2023-08-06T04:53:24;28.30;99.90
19972;DHT22;10147;16.402;102.848;2023-08-06T04:55:53;28.30;99.90
19972;DHT22;10147;16.402;102.848;2023-08-06T04:58:23;28.40;99.90
19972;DHT22;10147;16.402;102.848;2023-08-06T05:00:53;28.40;99.90
19972;DHT22;10147;16.402;102.848;2023-08-06T05:03:24;28.50;99.90
19972;DHT22;10147;16.402;102.848;2023-08-06T05:05:54;28.50;99.90
19972;DHT22;10147;16.402;102.848;2023-08-06T05:08:24;28.50;99.90
19972;DHT22;10147;16.402;102.848;2023-08-06T05:10:54;28.50;99.90
19972;DHT22;10147;16.402;102.848;2023-08-06T05:13:23;28.50;99.90
19972;DHT22;10147;16.402;102.848;2023-08-06T05:15:54;28.50;99.90
19972;DHT22;10147;16.402;102.848;2023-08-06T05:18:24;28.40;99.90
19972;DHT22;10147;16.402;102.848;2023-08-06T05:20:54;28.50;99.90
19972;DHT22;10147;16.402;102.848;2023-08-06T05:23:24;28.50;99.90
19972;DHT22;10147;16.402;102.848;2023-08-06T05:25:54;28.50;99.90
19972;DHT22;10147;16.402;102.848;2023-08-06T05:28:23;28.50;99.90
19972;DHT22;10147;16.402;102.848;2023-08-06T05:30:53;28.50;99.90
19972;DHT22;10147;16.402;102.848;2023-08-06T05:33:24;28.40;99.90
19972;DHT22;10147;16.402;102.848;2023-08-06T05:35:53;28.50;99.90
19972;DHT22;10147;16.402;102.848;2023-08-06T05:38:23;28.60;99.90
19972;DHT22;10147;16.402;102.848;2023-08-06T05:40:54;28.50;99.90
19972;DHT22;10147;16.402;102.848;2023-08-06T05:43:24;28.60;99.90
19972;DHT22;10147;16.402;102.848;2023-08-06T05:45:54;28.60;99.90
19972;DHT22;10147;16.402;102.848;2023-08-06T05:48:24;28.70;99.90
19972;DHT22;10147;16.402;102.848;2023-08-06T05:50:54;28.70;99.90
19972;DHT22;10147;16.402;102.848;2023-08-06T05:53:24;28.70;99.90
19972;DHT22;10147;16.402;102.848;2023-08-06T05:55:53;28.70;99.90
19972;DHT22;10147;16.402;102.848;2023-08-06T05:58:23;28.70;99.90
19972;DHT22;10147;16.402;102.848;2023-08-06T06:00:56;28.80;99.90
19972;DHT22;10147;16.402;102.848;2023-08-06T06:03:27;28.90;99.90
19972;DHT22;10147;16.402;102.848;2023-08-06T06:05:57;28.90;99.90
19972;DHT22;10147;16.402;102.848;2023-08-06T06:08:27;29.00;99.90
19972;DHT22;10147;16.402;102.848;2023-08-06T06:10:58;28.90;99.90
19972;DHT22;10147;16.402;102.848;2023-08-06T06:13:28;29.00;99.90
19972;DHT22;10147;16.402;102.848;2023-08-06T06:15:58;29.10;99.90
19972;DHT22;10147;16.402;102.848;2023-08-06T06:18:28;29.20;99.90
19972;DHT22;10147;16.402;102.848;2023-08-06T06:20:58;29.30;99.90
19972;DHT22;10147;16.402;102.848;2023-08-06T06:23:28;29.30;99.90
19972;DHT22;10147;16.402;102.848;2023-08-06T06:25:58;29.30;99.90
19972;DHT22;10147;16.402;102.848;2023-08-06T06:28:28;29.20;99.90
19972;DHT22;10147;16.402;102.848;2023-08-06T06:31:04;29.20;99.90
19972;DHT22;10147;16.402;102.848;2023-08-06T06:33:34;29.30;99.90
19972;DHT22;10147;16.402;102.848;2023-08-06T06:36:04;29.30;99.90
19972;DHT22;10147;16.402;102.848;2023-08-06T06:38:34;29.30;99.90
19972;DHT22;10147;16.402;102.848;2023-08-06T06:41:05;29.20;99.90
19972;DHT22;10147;16.402;102.848;2023-08-06T06:43:34;29.10;99.90
19972;DHT22;10147;16.402;102.848;2023-08-06T06:46:05;29.10;99.90
19972;DHT22;10147;16.402;102.848;2023-08-06T06:48:35;29.10;99.90
19972;DHT22;10147;16.402;102.848;2023-08-06T06:51:04;29.10;99.90
19972;DHT22;10147;16.402;102.848;2023-08-06T06:53:34;29.20;99.90
19972;DHT22;10147;16.402;102.848;2023-08-06T06:56:05;29.20;99.90
19972;DHT22;10147;16.402;102.848;2023-08-06T06:58:35;29.10;99.90
19972;DHT22;10147;16.402;102.848;2023-08-06T07:01:06;29.10;99.90
19972;DHT22;10147;16.402;102.848;2023-08-06T07:03:38;29.10;99.90
19972;DHT22;10147;16.402;102.848;2023-08-06T07:06:08;29.20;99.90
19972;DHT22;10147;16.402;102.848;2023-08-06T07:08:38;29.20;99.90
19972;DHT22;10147;16.402;102.848;2023-08-06T07:11:10;29.20;99.90
19972;DHT22;10147;16.402;102.848;2023-08-06T07:13:40;29.20;99.90
19972;DHT22;10147;16.402;102.848;2023-08-06T07:16:10;29.20;99.90
19972;DHT22;10147;16.402;102.848;2023-08-06T07:18:40;29.20;99.90
19972;DHT22;10147;16.402;102.848;2023-08-06T07:21:10;29.20;99.90
19972;DHT22;10147;16.402;102.848;2023-08-06T07:23:40;29.30;99.90
19972;DHT22;10147;16.402;102.848;2023-08-06T07:26:10;29.30;99.90
19972;DHT22;10147;16.402;102.848;2023-08-06T07:28:40;29.30;99.90
19972;DHT22;10147;16.402;102.848;2023-08-06T07:31:10;29.30;99.90
19972;DHT22;10147;16.402;102.848;2023-08-06T07:33:40;29.40;99.90
19972;DHT22;10147;16.402;102.848;2023-08-06T07:36:12;29.40;99.90
19972;DHT22;10147;16.402;102.848;2023-08-06T07:38:42;29.40;99.90
19972;DHT22;10147;16.402;102.848;2023-08-06T07:41:12;29.50;99.90
19972;DHT22;10147;16.402;102.848;2023-08-06T07:43:42;29.50;99.90
19972;DHT22;10147;16.402;102.848;2023-08-06T07:46:11;29.40;99.90
19972;DHT22;10147;16.402;102.848;2023-08-06T07:48:43;29.50;99.90
19972;DHT22;10147;16.402;102.848;2023-08-06T07:51:13;29.40;99.90
19972;DHT22;10147;16.402;102.848;2023-08-06T07:53:43;29.40;99.90
19972;DHT22;10147;16.402;102.848;2023-08-06T07:56:12;29.40;99.90
19972;DHT22;10147;16.402;102.848;2023-08-06T07:58:42;29.40;99.90
19972;DHT22;10147;16.402;102.848;2023-08-06T08:01:12;29.40;99.90
19972;DHT22;10147;16.402;102.848;2023-08-06T08:03:43;29.40;99.90
19972;DHT22;10147;16.402;102.848;2023-08-06T08:06:13;29.50;99.90
19972;DHT22;10147;16.402;102.848;2023-08-06T08:08:42;29.70;99.90
19972;DHT22;10147;16.402;102.848;2023-08-06T08:11:12;29.70;99.90
19972;DHT22;10147;16.402;102.848;2023-08-06T08:13:44;29.70;99.90
19972;DHT22;10147;16.402;102.848;2023-08-06T08:16:13;29.80;99.90
19972;DHT22;10147;16.402;102.848;2023-08-06T08:18:43;29.60;99.90
19972;DHT22;10147;16.402;102.848;2023-08-06T08:21:13;29.70;99.90
19972;DHT22;10147;16.402;102.848;2023-08-06T08:23:43;29.60;99.90
19972;DHT22;10147;16.402;102.848;2023-08-06T08:26:13;29.60;99.90
19972;DHT22;10147;16.402;102.848;2023-08-06T08:28:43;29.60;99.90
19972;DHT22;10147;16.402;102.848;2023-08-06T08:31:13;29.60;99.90
19972;DHT22;10147;16.402;102.848;2023-08-06T08:33:43;29.60;99.90
19972;DHT22;10147;16.402;102.848;2023-08-06T08:36:13;29.50;99.90
19972;DHT22;10147;16.402;102.848;2023-08-06T08:38:43;29.50;99.90
19972;DHT22;10147;16.402;102.848;2023-08-06T08:41:13;29.50;99.90
19972;DHT22;10147;16.402;102.848;2023-08-06T08:43:46;29.50;99.90
19972;DHT22;10147;16.402;102.848;2023-08-06T08:46:19;29.50;99.90
19972;DHT22;10147;16.402;102.848;2023-08-06T08:48:49;29.50;99.90
19972;DHT22;10147;16.402;102.848;2023-08-06T08:51:19;29.50;99.90
19972;DHT22;10147;16.402;102.848;2023-08-06T08:53:50;29.50;99.90
19972;DHT22;10147;16.402;102.848;2023-08-06T08:56:23;29.50;99.90
19972;DHT22;10147;16.402;102.848;2023-08-06T08:58:53;29.50;99.90
19972;DHT22;10147;16.402;102.848;2023-08-06T09:01:25;29.50;99.90
19972;DHT22;10147;16.402;102.848;2023-08-06T09:03:57;29.40;99.90
19972;DHT22;10147;16.402;102.848;2023-08-06T09:06:29;29.40;99.90
19972;DHT22;10147;16.402;102.848;2023-08-06T09:09:22;29.40;99.90
19972;DHT22;10147;16.402;102.848;2023-08-06T09:12:00;29.40;99.90
19972;DHT22;10147;16.402;102.848;2023-08-06T09:14:32;29.40;99.90
19972;DHT22;10147;16.402;102.848;2023-08-06T09:17:02;29.40;99.90
19972;DHT22;10147;16.402;102.848;2023-08-06T09:19:34;29.40;99.90
19972;DHT22;10147;16.402;102.848;2023-08-06T09:22:04;29.40;99.90
19972;DHT22;10147;16.402;102.848;2023-08-06T09:24:41;29.40;99.90
19972;DHT22;10147;16.402;102.848;2023-08-06T09:27:13;29.40;99.90
19972;DHT22;10147;16.402;102.848;2023-08-06T09:29:44;29.40;99.90
19972;DHT22;10147;16.402;102.848;2023-08-06T09:32:14;29.40;99.90
19972;DHT22;10147;16.402;102.848;2023-08-06T09:34:45;29.40;99.90
19972;DHT22;10147;16.402;102.848;2023-08-06T09:37:15;29.50;99.90
19972;DHT22;10147;16.402;102.848;2023-08-06T09:39:45;29.50;99.90
19972;DHT22;10147;16.402;102.848;2023-08-06T09:42:15;29.40;99.90
19972;DHT22;10147;16.402;102.848;2023-08-06T09:44:45;29.50;99.90
19972;DHT22;10147;16.402;102.848;2023-08-06T09:47:16;29.50;99.90
19972;DHT22;10147;16.402;102.848;2023-08-06T09:49:47;29.50;99.90
19972;DHT22;10147;16.402;102.848;2023-08-06T09:52:17;29.50;99.90
19972;DHT22;10147;16.402;102.848;2023-08-06T09:54:48;29.60;99.90
19972;DHT22;10147;16.402;102.848;2023-08-06T09:57:19;29.50;99.90
19972;DHT22;10147;16.402;102.848;2023-08-06T09:59:49;29.50;99.90
19972;DHT22;10147;16.402;102.848;2023-08-06T10:02:20;29.60;99.90
19972;DHT22;10147;16.402;102.848;2023-08-06T10:04:55;29.60;99.90
19972;DHT22;10147;16.402;102.848;2023-08-06T10:07:28;29.50;99.90
19972;DHT22;10147;16.402;102.848;2023-08-06T10:09:59;29.60;99.90
19972;DHT22;10147;16.402;102.848;2023-08-06T10:12:36;29.50;99.90
19972;DHT22;10147;16.402;102.848;2023-08-06T10:15:11;29.50;99.90
19972;DHT22;10147;16.402;102.848;2023-08-06T10:17:44;29.40;99.90
19972;DHT22;10147;16.402;102.848;2023-08-06T10:20:18;29.50;99.90
19972;DHT22;10147;16.402;102.848;2023-08-06T10:23:10;29.40;99.90
19972;DHT22;10147;16.402;102.848;2023-08-06T10:25:43;29.40;99.90
19972;DHT22;10147;16.402;102.848;2023-08-06T10:28:13;29.40;99.90
19972;DHT22;10147;16.402;102.848;2023-08-06T10:30:47;29.30;99.90
19972;DHT22;10147;16.402;102.848;2023-08-06T10:33:19;29.30;99.90
19972;DHT22;10147;16.402;102.848;2023-08-06T10:35:50;29.30;99.90
19972;DHT22;10147;16.402;102.848;2023-08-06T10:38:26;29.30;99.90
19972;DHT22;10147;16.402;102.848;2023-08-06T10:41:03;29.30;99.90
19972;DHT22;10147;16.402;102.848;2023-08-06T10:43:35;29.30;99.90
19972;DHT22;10147;16.402;102.848;2023-08-06T10:46:11;29.30;99.90
19972;DHT22;10147;16.402;102.848;2023-08-06T10:48:44;29.30;99.90
19972;DHT22;10147;16.402;102.848;2023-08-06T10:51:15;29.30;99.90
19972;DHT22;10147;16.402;102.848;2023-08-06T10:53:47;29.30;99.90
19972;DHT22;10147;16.402;102.848;2023-08-06T10:56:18;29.30;99.90
19972;DHT22;10147;16.402;102.848;2023-08-06T10:58:50;29.30;99.90
19972;DHT22;10147;16.402;102.848;2023-08-06T11:01:22;29.20;99.90
19972;DHT22;10147;16.402;102.848;2023-08-06T11:03:52;29.20;99.90
19972;DHT22;10147;16.402;102.848;2023-08-06T11:06:23;29.20;99.90
19972;DHT22;10147;16.402;102.848;2023-08-06T11:08:54;29.20;99.90
19972;DHT22;10147;16.402;102.848;2023-08-06T11:11:24;29.20;99.90
19972;DHT22;10147;16.402;102.848;2023-08-06T11:13:54;29.20;99.90
19972;DHT22;10147;16.402;102.848;2023-08-06T11:16:24;29.10;99.90
19972;DHT22;10147;16.402;102.848;2023-08-06T11:18:54;29.10;99.90
19972;DHT22;10147;16.402;102.848;2023-08-06T11:21:25;29.20;99.90
19972;DHT22;10147;16.402;102.848;2023-08-06T11:23:56;29.10;99.90
19972;DHT22;10147;16.402;102.848;2023-08-06T11:26:26;29.10;99.90
19972;DHT22;10147;16.402;102.848;2023-08-06T11:28:58;29.10;99.90
19972;DHT22;10147;16.402;102.848;2023-08-06T11:31:28;29.10;99.90
19972;DHT22;10147;16.402;102.848;2023-08-06T11:33:58;29.10;99.90
19972;DHT22;10147;16.402;102.848;2023-08-06T11:36:32;29.00;99.90
19972;DHT22;10147;16.402;102.848;2023-08-06T11:39:03;29.00;99.90
19972;DHT22;10147;16.402;102.848;2023-08-06T11:41:39;29.00;99.90
19972;DHT22;10147;16.402;102.848;2023-08-06T11:44:11;28.90;99.90
19972;DHT22;10147;16.402;102.848;2023-08-06T11:46:55;28.90;99.90
19972;DHT22;10147;16.402;102.848;2023-08-06T11:49:46;28.80;99.90
19972;DHT22;10147;16.402;102.848;2023-08-06T11:52:26;28.70;99.90
19972;DHT22;10147;16.402;102.848;2023-08-06T11:55:07;28.70;99.90
19972;DHT22;10147;16.402;102.848;2023-08-06T11:57:44;28.80;99.90
19972;DHT22;10147;16.402;102.848;2023-08-06T12:00:14;28.80;99.90
19972;DHT22;10147;16.402;102.848;2023-08-06T12:02:47;28.80;99.90
19972;DHT22;10147;16.402;102.848;2023-08-06T12:05:19;28.70;99.90
19972;DHT22;10147;16.402;102.848;2023-08-06T12:07:55;28.70;99.90
19972;DHT22;10147;16.402;102.848;2023-08-06T12:10:27;28.70;99.90
19972;DHT22;10147;16.402;102.848;2023-08-06T12:12:59;28.60;99.90
19972;DHT22;10147;16.402;102.848;2023-08-06T12:15:29;28.60;99.90
19972;DHT22;10147;16.402;102.848;2023-08-06T12:18:01;28.50;99.90
19972;DHT22;10147;16.402;102.848;2023-08-06T12:20:30;28.50;99.90
19972;DHT22;10147;16.402;102.848;2023-08-06T12:23:00;28.50;99.90
19972;DHT22;10147;16.402;102.848;2023-08-06T12:25:30;28.40;99.90
19972;DHT22;10147;16.402;102.848;2023-08-06T12:28:00;28.40;99.90
19972;DHT22;10147;16.402;102.848;2023-08-06T12:30:30;28.30;99.90
19972;DHT22;10147;16.402;102.848;2023-08-06T12:33:00;28.30;99.90
19972;DHT22;10147;16.402;102.848;2023-08-06T12:35:37;28.30;99.90
19972;DHT22;10147;16.402;102.848;2023-08-06T12:38:07;28.20;99.90
19972;DHT22;10147;16.402;102.848;2023-08-06T12:40:37;28.20;99.90
19972;DHT22;10147;16.402;102.848;2023-08-06T12:43:10;28.30;99.90
19972;DHT22;10147;16.402;102.848;2023-08-06T12:45:40;28.20;99.90
19972;DHT22;10147;16.402;102.848;2023-08-06T12:48:10;28.20;99.90
19972;DHT22;10147;16.402;102.848;2023-08-06T12:50:40;28.10;99.90
19972;DHT22;10147;16.402;102.848;2023-08-06T12:53:10;28.20;99.90
19972;DHT22;10147;16.402;102.848;2023-08-06T12:55:40;28.20;99.90
19972;DHT22;10147;16.402;102.848;2023-08-06T12:58:11;28.00;99.90
19972;DHT22;10147;16.402;102.848;2023-08-06T13:00:43;28.00;99.90
19972;DHT22;10147;16.402;102.848;2023-08-06T13:03:14;28.00;99.90
19972;DHT22;10147;16.402;102.848;2023-08-06T13:05:44;27.90;99.90
19972;DHT22;10147;16.402;102.848;2023-08-06T13:08:15;27.90;99.90
19972;DHT22;10147;16.402;102.848;2023-08-06T13:10:45;27.90;99.90
19972;DHT22;10147;16.402;102.848;2023-08-06T13:13:15;27.90;99.90
19972;DHT22;10147;16.402;102.848;2023-08-06T13:15:44;27.90;99.90
19972;DHT22;10147;16.402;102.848;2023-08-06T13:18:14;27.90;99.90
19972;DHT22;10147;16.402;102.848;2023-08-06T13:20:47;27.90;99.90
19972;DHT22;10147;16.402;102.848;2023-08-06T13:23:18;27.80;99.90
19972;DHT22;10147;16.402;102.848;2023-08-06T13:25:48;27.90;99.90
19972;DHT22;10147;16.402;102.848;2023-08-06T13:28:19;27.80;99.90
19972;DHT22;10147;16.402;102.848;2023-08-06T13:30:48;27.70;99.90
19972;DHT22;10147;16.402;102.848;2023-08-06T13:33:19;27.70;99.90
19972;DHT22;10147;16.402;102.848;2023-08-06T13:35:50;27.70;99.90
19972;DHT22;10147;16.402;102.848;2023-08-06T13:38:20;27.70;99.90
19972;DHT22;10147;16.402;102.848;2023-08-06T13:40:50;27.70;99.90
19972;DHT22;10147;16.402;102.848;2023-08-06T13:43:19;27.70;99.90
19972;DHT22;10147;16.402;102.848;2023-08-06T13:45:49;27.70;99.90
19972;DHT22;10147;16.402;102.848;2023-08-06T13:48:19;27.70;99.90
19972;DHT22;10147;16.402;102.848;2023-08-06T13:50:49;27.70;99.90
19972;DHT22;10147;16.402;102.848;2023-08-06T13:53:19;27.70;99.90
19972;DHT22;10147;16.402;102.848;2023-08-06T13:55:52;27.70;99.90
19972;DHT22;10147;16.402;102.848;2023-08-06T13:58:22;27.70;99.90
19972;DHT22;10147;16.402;102.848;2023-08-06T14:00:54;27.70;99.90
19972;DHT22;10147;16.402;102.848;2023-08-06T14:03:24;27.60;99.90
19972;DHT22;10147;16.402;102.848;2023-08-06T14:05:54;27.60;99.90
19972;DHT22;10147;16.402;102.848;2023-08-06T14:08:27;27.50;99.90
19972;DHT22;10147;16.402;102.848;2023-08-06T14:10:57;27.50;99.90
19972;DHT22;10147;16.402;102.848;2023-08-06T14:13:28;27.60;99.90
19972;DHT22;10147;16.402;102.848;2023-08-06T14:15:58;27.60;99.90
19972;DHT22;10147;16.402;102.848;2023-08-06T14:18:28;27.60;99.90
19972;DHT22;10147;16.402;102.848;2023-08-06T14:20:59;27.60;99.90
19972;DHT22;10147;16.402;102.848;2023-08-06T14:23:29;27.60;99.90
19972;DHT22;10147;16.402;102.848;2023-08-06T14:25:59;27.60;99.90
19972;DHT22;10147;16.402;102.848;2023-08-06T14:28:29;27.60;99.90
19972;DHT22;10147;16.402;102.848;2023-08-06T14:30:59;27.60;99.90
19972;DHT22;10147;16.402;102.848;2023-08-06T14:33:32;27.50;99.90
19972;DHT22;10147;16.402;102.848;2023-08-06T14:36:02;27.60;99.90
19972;DHT22;10147;16.402;102.848;2023-08-06T14:38:32;27.60;99.90
19972;DHT22;10147;16.402;102.848;2023-08-06T14:41:13;27.60;99.90
19972;DHT22;10147;16.402;102.848;2023-08-06T14:43:43;27.60;99.90
19972;DHT22;10147;16.402;102.848;2023-08-06T14:46:13;27.50;99.90
19972;DHT22;10147;16.402;102.848;2023-08-06T14:48:43;27.50;99.90
19972;DHT22;10147;16.402;102.848;2023-08-06T14:51:13;27.50;99.90
19972;DHT22;10147;16.402;102.848;2023-08-06T14:53:43;27.50;99.90
19972;DHT22;10147;16.402;102.848;2023-08-06T14:56:16;27.50;99.90
19972;DHT22;10147;16.402;102.848;2023-08-06T14:58:46;27.40;99.90
19972;DHT22;10147;16.402;102.848;2023-08-06T15:01:16;27.40;99.90
19972;DHT22;10147;16.402;102.848;2023-08-06T15:03:46;27.40;99.90
19972;DHT22;10147;16.402;102.848;2023-08-06T15:06:18;27.40;99.90
19972;DHT22;10147;16.402;102.848;2023-08-06T15:08:49;27.40;99.90
19972;DHT22;10147;16.402;102.848;2023-08-06T15:11:19;27.40;99.90
19972;DHT22;10147;16.402;102.848;2023-08-06T15:13:49;27.30;99.90
19972;DHT22;10147;16.402;102.848;2023-08-06T15:16:19;27.40;99.90
19972;DHT22;10147;16.402;102.848;2023-08-06T15:18:49;27.30;99.90
19972;DHT22;10147;16.402;102.848;2023-08-06T15:21:19;27.30;99.90
19972;DHT22;10147;16.402;102.848;2023-08-06T15:23:49;27.30;99.90
19972;DHT22;10147;16.402;102.848;2023-08-06T15:26:19;27.30;99.90
19972;DHT22;10147;16.402;102.848;2023-08-06T15:28:50;27.30;99.90
19972;DHT22;10147;16.402;102.848;2023-08-06T15:31:20;27.30;99.90
19972;DHT22;10147;16.402;102.848;2023-08-06T15:33:51;27.30;99.90